sensor_id;sensor_type;location;lat;lon;timestamp;P1;durP1;ratioP1;P2;durP2;ratioP2
966;SDS011;56108;48.730;9.304;2023-04-01T00:01:36;1.42;;;0.90;;
966;SDS011;56108;48.730;9.304;2023-04-01T00:03:44;1.17;;;1.08;;
966;SDS011;56108;48.730;9.304;2023-04-01T00:05:53;0.70;;;0.57;;
966;SDS011;56108;48.730;9.304;2023-04-01T00:08:04;1.95;;;1.02;;
966;SDS011;56108;48.730;9.304;2023-04-01T00:10:15;2.25;;;1.00;;
966;SDS011;56108;48.730;9.304;2023-04-01T00:12:23;1.48;;;0.93;;
966;SDS011;56108;48.730;9.304;2023-04-01T00:14:31;3.15;;;1.30;;
966;SDS011;56108;48.730;9.304;2023-04-01T00:16:41;2.05;;;1.17;;
966;SDS011;56108;48.730;9.304;2023-04-01T00:18:49;2.88;;;1.10;;
966;SDS011;56108;48.730;9.304;2023-04-01T00:20:58;1.75;;;0.90;;
966;SDS011;56108;48.730;9.304;2023-04-01T00:23:09;1.33;;;1.10;;
966;SDS011;56108;48.730;9.304;2023-04-01T00:25:17;1.65;;;1.10;;
966;SDS011;56108;48.730;9.304;2023-04-01T00:27:25;1.48;;;1.17;;
966;SDS011;56108;48.730;9.304;2023-04-01T00:29:33;4.68;;;1.63;;
966;SDS011;56108;48.730;9.304;2023-04-01T00:31:42;2.58;;;0.95;;
966;SDS011;56108;48.730;9.304;2023-04-01T00:33:50;1.05;;;0.93;;
966;SDS011;56108;48.730;9.304;2023-04-01T00:36:05;1.00;;;1.00;;
966;SDS011;56108;48.730;9.304;2023-04-01T00:38:17;1.10;;;1.00;;
966;SDS011;56108;48.730;9.304;2023-04-01T00:40:26;2.17;;;1.33;;
966;SDS011;56108;48.730;9.304;2023-04-01T00:42:35;1.65;;;1.10;;
966;SDS011;56108;48.730;9.304;2023-04-01T00:44:44;1.52;;;1.23;;
966;SDS011;56108;48.730;9.304;2023-04-01T00:46:55;4.65;;;1.00;;
966;SDS011;56108;48.730;9.304;2023-04-01T00:49:04;1.20;;;1.10;;
966;SDS011;56108;48.730;9.304;2023-04-01T00:51:13;1.60;;;1.20;;
966;SDS011;56108;48.730;9.304;2023-04-01T00:53:27;1.52;;;1.30;;
966;SDS011;56108;48.730;9.304;2023-04-01T00:55:39;1.80;;;1.10;;
966;SDS011;56108;48.730;9.304;2023-04-01T00:57:51;1.42;;;1.10;;
966;SDS011;56108;48.730;9.304;2023-04-01T01:00:03;2.25;;;0.70;;
966;SDS011;56108;48.730;9.304;2023-04-01T01:02:14;0.93;;;0.93;;
966;SDS011;56108;48.730;9.304;2023-04-01T01:04:24;1.35;;;1.17;;
966;SDS011;56108;48.730;9.304;2023-04-01T01:06:37;1.42;;;1.08;;
966;SDS011;56108;48.730;9.304;2023-04-01T01:08:56;0.85;;;0.85;;
966;SDS011;56108;48.730;9.304;2023-04-01T01:11:19;1.23;;;0.90;;
966;SDS011;56108;48.730;9.304;2023-04-01T01:13:56;1.20;;;1.00;;
966;SDS011;56108;48.730;9.304;2023-04-01T01:16:09;1.48;;;0.90;;
966;SDS011;56108;48.730;9.304;2023-04-01T01:18:30;2.85;;;0.93;;
966;SDS011;56108;48.730;9.304;2023-04-01T01:23:32;1.13;;;1.00;;
966;SDS011;56108;48.730;9.304;2023-04-01T01:26:02;1.08;;;0.93;;
966;SDS011;56108;48.730;9.304;2023-04-01T01:28:26;2.13;;;0.57;;
966;SDS011;56108;48.730;9.304;2023-04-01T01:30:46;3.15;;;0.85;;
966;SDS011;56108;48.730;9.304;2023-04-01T01:33:06;5.15;;;1.00;;
966;SDS011;56108;48.730;9.304;2023-04-01T01:35:35;1.35;;;1.35;;
966;SDS011;56108;48.730;9.304;2023-04-01T01:37:53;0.82;;;0.80;;
966;SDS011;56108;48.730;9.304;2023-04-01T01:40:06;2.17;;;0.85;;
966;SDS011;56108;48.730;9.304;2023-04-01T01:42:17;1.48;;;0.98;;
966;SDS011;56108;48.730;9.304;2023-04-01T01:44:28;1.02;;;0.80;;
966;SDS011;56108;48.730;9.304;2023-04-01T01:46:37;1.15;;;1.10;;
966;SDS011;56108;48.730;9.304;2023-04-01T01:48:46;1.40;;;0.80;;
966;SDS011;56108;48.730;9.304;2023-04-01T01:50:59;1.55;;;0.90;;
966;SDS011;56108;48.730;9.304;2023-04-01T01:53:08;2.80;;;1.30;;
966;SDS011;56108;48.730;9.304;2023-04-01T01:55:26;1.05;;;0.95;;
966;SDS011;56108;48.730;9.304;2023-04-01T01:57:36;1.23;;;0.65;;
966;SDS011;56108;48.730;9.304;2023-04-01T01:59:52;1.85;;;0.50;;
966;SDS011;56108;48.730;9.304;2023-04-01T02:02:05;1.13;;;0.60;;
966;SDS011;56108;48.730;9.304;2023-04-01T02:04:16;1.67;;;0.70;;
966;SDS011;56108;48.730;9.304;2023-04-01T02:06:30;0.95;;;0.73;;
966;SDS011;56108;48.730;9.304;2023-04-01T02:08:42;1.90;;;1.00;;
966;SDS011;56108;48.730;9.304;2023-04-01T02:10:56;1.35;;;0.70;;
966;SDS011;56108;48.730;9.304;2023-04-01T02:13:14;2.22;;;0.82;;
966;SDS011;56108;48.730;9.304;2023-04-01T02:15:27;0.60;;;0.52;;
966;SDS011;56108;48.730;9.304;2023-04-01T02:17:42;1.23;;;1.10;;
966;SDS011;56108;48.730;9.304;2023-04-01T02:19:54;1.30;;;0.70;;
966;SDS011;56108;48.730;9.304;2023-04-01T02:22:10;0.93;;;0.68;;
966;SDS011;56108;48.730;9.304;2023-04-01T02:24:21;1.10;;;1.00;;
966;SDS011;56108;48.730;9.304;2023-04-01T02:26:32;1.25;;;0.77;;
966;SDS011;56108;48.730;9.304;2023-04-01T02:28:41;0.50;;;0.50;;
966;SDS011;56108;48.730;9.304;2023-04-01T02:30:54;0.50;;;0.40;;
966;SDS011;56108;48.730;9.304;2023-04-01T02:33:07;1.45;;;0.82;;
966;SDS011;56108;48.730;9.304;2023-04-01T02:35:16;0.85;;;0.57;;
966;SDS011;56108;48.730;9.304;2023-04-01T02:37:28;0.50;;;0.50;;
966;SDS011;56108;48.730;9.304;2023-04-01T02:39:39;0.45;;;0.45;;
966;SDS011;56108;48.730;9.304;2023-04-01T02:41:47;0.50;;;0.40;;
966;SDS011;56108;48.730;9.304;2023-04-01T02:43:55;0.60;;;0.57;;
966;SDS011;56108;48.730;9.304;2023-04-01T02:46:04;1.15;;;0.50;;
966;SDS011;56108;48.730;9.304;2023-04-01T02:48:12;0.50;;;0.50;;
966;SDS011;56108;48.730;9.304;2023-04-01T02:50:21;0.70;;;0.70;;
966;SDS011;56108;48.730;9.304;2023-04-01T02:52:32;0.75;;;0.65;;
966;SDS011;56108;48.730;9.304;2023-04-01T02:54:40;0.50;;;0.50;;
966;SDS011;56108;48.730;9.304;2023-04-01T02:56:48;0.47;;;0.47;;
966;SDS011;56108;48.730;9.304;2023-04-01T02:58:57;0.60;;;0.60;;
966;SDS011;56108;48.730;9.304;2023-04-01T03:01:05;1.05;;;0.60;;
966;SDS011;56108;48.730;9.304;2023-04-01T03:03:13;1.33;;;0.77;;
966;SDS011;56108;48.730;9.304;2023-04-01T03:05:21;0.52;;;0.52;;
966;SDS011;56108;48.730;9.304;2023-04-01T03:07:32;0.60;;;0.40;;
966;SDS011;56108;48.730;9.304;2023-04-01T03:09:39;2.55;;;0.50;;
966;SDS011;56108;48.730;9.304;2023-04-01T03:11:48;1.05;;;0.43;;
966;SDS011;56108;48.730;9.304;2023-04-01T03:13:56;1.38;;;0.55;;
966;SDS011;56108;48.730;9.304;2023-04-01T03:16:04;2.35;;;0.50;;
966;SDS011;56108;48.730;9.304;2023-04-01T03:18:13;0.40;;;0.40;;
966;SDS011;56108;48.730;9.304;2023-04-01T03:20:21;0.60;;;0.60;;
966;SDS011;56108;48.730;9.304;2023-04-01T03:22:32;1.05;;;0.38;;
966;SDS011;56108;48.730;9.304;2023-04-01T03:24:41;1.08;;;0.80;;
966;SDS011;56108;48.730;9.304;2023-04-01T03:26:49;3.63;;;0.50;;
966;SDS011;56108;48.730;9.304;2023-04-01T03:28:57;1.08;;;0.60;;
966;SDS011;56108;48.730;9.304;2023-04-01T03:31:05;0.60;;;0.52;;
966;SDS011;56108;48.730;9.304;2023-04-01T03:33:19;0.45;;;0.45;;
966;SDS011;56108;48.730;9.304;2023-04-01T03:35:27;1.15;;;0.40;;
966;SDS011;56108;48.730;9.304;2023-04-01T03:37:39;0.68;;;0.68;;
966;SDS011;56108;48.730;9.304;2023-04-01T03:39:47;0.50;;;0.50;;
966;SDS011;56108;48.730;9.304;2023-04-01T03:41:55;0.52;;;0.40;;
966;SDS011;56108;48.730;9.304;2023-04-01T03:44:03;0.60;;;0.60;;
966;SDS011;56108;48.730;9.304;2023-04-01T03:46:16;0.40;;;0.40;;
966;SDS011;56108;48.730;9.304;2023-04-01T03:48:25;0.40;;;0.40;;
966;SDS011;56108;48.730;9.304;2023-04-01T03:50:34;0.82;;;0.50;;
966;SDS011;56108;48.730;9.304;2023-04-01T03:52:45;1.20;;;0.60;;
966;SDS011;56108;48.730;9.304;2023-04-01T03:54:53;1.10;;;0.70;;
966;SDS011;56108;48.730;9.304;2023-04-01T03:57:01;0.40;;;0.40;;
966;SDS011;56108;48.730;9.304;2023-04-01T03:59:10;0.30;;;0.30;;
966;SDS011;56108;48.730;9.304;2023-04-01T04:01:19;0.68;;;0.55;;
966;SDS011;56108;48.730;9.304;2023-04-01T04:03:32;0.40;;;0.40;;
966;SDS011;56108;48.730;9.304;2023-04-01T04:05:45;0.70;;;0.40;;
966;SDS011;56108;48.730;9.304;2023-04-01T04:07:58;1.20;;;0.40;;
966;SDS011;56108;48.730;9.304;2023-04-01T04:10:07;0.50;;;0.50;;
966;SDS011;56108;48.730;9.304;2023-04-01T04:12:15;0.95;;;0.40;;
966;SDS011;56108;48.730;9.304;2023-04-01T04:14:24;0.73;;;0.50;;
966;SDS011;56108;48.730;9.304;2023-04-01T04:16:34;1.20;;;0.60;;
966;SDS011;56108;48.730;9.304;2023-04-01T04:18:43;0.50;;;0.50;;
966;SDS011;56108;48.730;9.304;2023-04-01T04:20:51;0.30;;;0.30;;
966;SDS011;56108;48.730;9.304;2023-04-01T04:23:02;0.47;;;0.47;;
966;SDS011;56108;48.730;9.304;2023-04-01T04:25:12;0.40;;;0.30;;
966;SDS011;56108;48.730;9.304;2023-04-01T04:27:20;0.95;;;0.50;;
966;SDS011;56108;48.730;9.304;2023-04-01T04:29:36;1.27;;;0.47;;
966;SDS011;56108;48.730;9.304;2023-04-01T04:31:44;0.47;;;0.47;;
966;SDS011;56108;48.730;9.304;2023-04-01T04:33:52;0.65;;;0.65;;
966;SDS011;56108;48.730;9.304;2023-04-01T04:36:01;0.60;;;0.60;;
966;SDS011;56108;48.730;9.304;2023-04-01T04:38:13;0.57;;;0.40;;
966;SDS011;56108;48.730;9.304;2023-04-01T04:40:21;0.75;;;0.50;;
966;SDS011;56108;48.730;9.304;2023-04-01T04:42:29;0.63;;;0.63;;
966;SDS011;56108;48.730;9.304;2023-04-01T04:44:43;0.60;;;0.60;;
966;SDS011;56108;48.730;9.304;2023-04-01T04:46:51;0.52;;;0.50;;
966;SDS011;56108;48.730;9.304;2023-04-01T04:49:01;2.10;;;0.70;;
966;SDS011;56108;48.730;9.304;2023-04-01T04:51:12;0.70;;;0.60;;
966;SDS011;56108;48.730;9.304;2023-04-01T04:53:23;0.75;;;0.75;;
966;SDS011;56108;48.730;9.304;2023-04-01T04:55:31;0.82;;;0.68;;
966;SDS011;56108;48.730;9.304;2023-04-01T04:57:54;0.60;;;0.60;;
966;SDS011;56108;48.730;9.304;2023-04-01T05:00:03;0.77;;;0.50;;
966;SDS011;56108;48.730;9.304;2023-04-01T05:02:39;1.00;;;0.90;;
966;SDS011;56108;48.730;9.304;2023-04-01T05:04:47;0.70;;;0.70;;
966;SDS011;56108;48.730;9.304;2023-04-01T05:06:55;2.20;;;0.73;;
966;SDS011;56108;48.730;9.304;2023-04-01T05:09:05;3.42;;;0.80;;
966;SDS011;56108;48.730;9.304;2023-04-01T05:11:14;0.63;;;0.63;;
966;SDS011;56108;48.730;9.304;2023-04-01T05:13:26;0.40;;;0.40;;
966;SDS011;56108;48.730;9.304;2023-04-01T05:15:34;1.35;;;0.88;;
966;SDS011;56108;48.730;9.304;2023-04-01T05:17:43;1.25;;;0.68;;
966;SDS011;56108;48.730;9.304;2023-04-01T05:19:52;0.60;;;0.60;;
966;SDS011;56108;48.730;9.304;2023-04-01T05:22:00;0.60;;;0.60;;
966;SDS011;56108;48.730;9.304;2023-04-01T05:24:11;1.77;;;1.10;;
966;SDS011;56108;48.730;9.304;2023-04-01T05:26:19;0.50;;;0.50;;
966;SDS011;56108;48.730;9.304;2023-04-01T05:28:27;1.30;;;0.90;;
966;SDS011;56108;48.730;9.304;2023-04-01T05:30:35;1.55;;;0.88;;
966;SDS011;56108;48.730;9.304;2023-04-01T05:33:04;1.48;;;0.90;;
966;SDS011;56108;48.730;9.304;2023-04-01T05:35:12;1.15;;;1.05;;
966;SDS011;56108;48.730;9.304;2023-04-01T05:37:21;1.48;;;1.38;;
966;SDS011;56108;48.730;9.304;2023-04-01T05:39:35;1.83;;;1.02;;
966;SDS011;56108;48.730;9.304;2023-04-01T05:41:45;1.25;;;0.80;;
966;SDS011;56108;48.730;9.304;2023-04-01T05:43:53;1.30;;;0.90;;
966;SDS011;56108;48.730;9.304;2023-04-01T05:46:21;2.33;;;0.80;;
966;SDS011;56108;48.730;9.304;2023-04-01T05:48:36;0.60;;;0.60;;
966;SDS011;56108;48.730;9.304;2023-04-01T05:50:45;0.65;;;0.63;;
966;SDS011;56108;48.730;9.304;2023-04-01T05:52:53;0.60;;;0.60;;
966;SDS011;56108;48.730;9.304;2023-04-01T05:55:05;1.40;;;1.10;;
966;SDS011;56108;48.730;9.304;2023-04-01T05:57:14;1.15;;;0.80;;
966;SDS011;56108;48.730;9.304;2023-04-01T05:59:22;1.58;;;1.45;;
966;SDS011;56108;48.730;9.304;2023-04-01T06:01:30;2.10;;;1.90;;
966;SDS011;56108;48.730;9.304;2023-04-01T06:03:38;3.17;;;2.92;;
966;SDS011;56108;48.730;9.304;2023-04-01T06:05:46;3.63;;;1.48;;
966;SDS011;56108;48.730;9.304;2023-04-01T06:07:58;1.20;;;1.10;;
966;SDS011;56108;48.730;9.304;2023-04-01T06:10:13;1.20;;;0.98;;
966;SDS011;56108;48.730;9.304;2023-04-01T06:12:27;0.90;;;0.60;;
966;SDS011;56108;48.730;9.304;2023-04-01T06:14:44;1.55;;;0.98;;
966;SDS011;56108;48.730;9.304;2023-04-01T06:17:05;0.50;;;0.50;;
966;SDS011;56108;48.730;9.304;2023-04-01T06:19:28;0.50;;;0.50;;
966;SDS011;56108;48.730;9.304;2023-04-01T06:24:35;0.82;;;0.60;;
966;SDS011;56108;48.730;9.304;2023-04-01T06:27:01;4.32;;;0.80;;
966;SDS011;56108;48.730;9.304;2023-04-01T06:29:23;0.80;;;0.73;;
966;SDS011;56108;48.730;9.304;2023-04-01T06:31:59;1.98;;;0.80;;
966;SDS011;56108;48.730;9.304;2023-04-01T06:34:29;1.50;;;0.75;;
966;SDS011;56108;48.730;9.304;2023-04-01T06:36:54;0.50;;;0.50;;
966;SDS011;56108;48.730;9.304;2023-04-01T06:39:22;1.90;;;0.88;;
966;SDS011;56108;48.730;9.304;2023-04-01T06:42:12;0.95;;;0.80;;
966;SDS011;56108;48.730;9.304;2023-04-01T06:44:27;1.65;;;0.80;;
966;SDS011;56108;48.730;9.304;2023-04-01T06:47:03;0.70;;;0.60;;
966;SDS011;56108;48.730;9.304;2023-04-01T06:49:48;0.50;;;0.50;;
966;SDS011;56108;48.730;9.304;2023-04-01T06:52:23;0.98;;;0.52;;
966;SDS011;56108;48.730;9.304;2023-04-01T06:54:58;1.20;;;0.75;;
966;SDS011;56108;48.730;9.304;2023-04-01T06:57:58;0.40;;;0.40;;
966;SDS011;56108;48.730;9.304;2023-04-01T07:00:27;0.88;;;0.88;;
966;SDS011;56108;48.730;9.304;2023-04-01T07:02:43;0.60;;;0.60;;
966;SDS011;56108;48.730;9.304;2023-04-01T07:04:59;1.05;;;0.43;;
966;SDS011;56108;48.730;9.304;2023-04-01T07:07:12;1.10;;;0.50;;
966;SDS011;56108;48.730;9.304;2023-04-01T07:09:33;0.90;;;0.60;;
966;SDS011;56108;48.730;9.304;2023-04-01T07:12:06;0.50;;;0.50;;
966;SDS011;56108;48.730;9.304;2023-04-01T07:14:45;1.67;;;0.70;;
966;SDS011;56108;48.730;9.304;2023-04-01T07:16:58;0.38;;;0.28;;
966;SDS011;56108;48.730;9.304;2023-04-01T07:19:11;0.60;;;0.40;;
966;SDS011;56108;48.730;9.304;2023-04-01T07:21:35;0.60;;;0.30;;
966;SDS011;56108;48.730;9.304;2023-04-01T07:23:57;1.30;;;0.50;;
966;SDS011;56108;48.730;9.304;2023-04-01T07:26:20;1.75;;;0.80;;
966;SDS011;56108;48.730;9.304;2023-04-01T07:28:38;0.45;;;0.45;;
966;SDS011;56108;48.730;9.304;2023-04-01T07:31:10;0.85;;;0.50;;
966;SDS011;56108;48.730;9.304;2023-04-01T07:33:29;0.50;;;0.47;;
966;SDS011;56108;48.730;9.304;2023-04-01T07:35:45;0.75;;;0.75;;
966;SDS011;56108;48.730;9.304;2023-04-01T07:38:04;0.40;;;0.32;;
966;SDS011;56108;48.730;9.304;2023-04-01T07:40:25;0.60;;;0.40;;
966;SDS011;56108;48.730;9.304;2023-04-01T07:42:43;0.65;;;0.65;;
966;SDS011;56108;48.730;9.304;2023-04-01T07:45:05;2.05;;;0.50;;
966;SDS011;56108;48.730;9.304;2023-04-01T07:47:27;0.77;;;0.65;;
966;SDS011;56108;48.730;9.304;2023-04-01T07:49:46;0.52;;;0.40;;
966;SDS011;56108;48.730;9.304;2023-04-01T07:52:02;0.30;;;0.30;;
966;SDS011;56108;48.730;9.304;2023-04-01T07:54:25;0.90;;;0.50;;
966;SDS011;56108;48.730;9.304;2023-04-01T07:56:38;1.33;;;0.95;;
966;SDS011;56108;48.730;9.304;2023-04-01T07:59:01;0.90;;;0.60;;
966;SDS011;56108;48.730;9.304;2023-04-01T08:01:36;1.20;;;0.43;;
966;SDS011;56108;48.730;9.304;2023-04-01T08:03:57;0.60;;;0.40;;
966;SDS011;56108;48.730;9.304;2023-04-01T08:06:24;0.60;;;0.43;;
966;SDS011;56108;48.730;9.304;2023-04-01T08:08:40;0.70;;;0.50;;
966;SDS011;56108;48.730;9.304;2023-04-01T08:11:19;1.33;;;0.80;;
966;SDS011;56108;48.730;9.304;2023-04-01T08:13:56;0.70;;;0.70;;
966;SDS011;56108;48.730;9.304;2023-04-01T08:16:32;0.75;;;0.50;;
966;SDS011;56108;48.730;9.304;2023-04-01T08:18:58;0.65;;;0.63;;
966;SDS011;56108;48.730;9.304;2023-04-01T08:21:14;1.05;;;0.57;;
966;SDS011;56108;48.730;9.304;2023-04-01T08:23:28;0.50;;;0.40;;
966;SDS011;56108;48.730;9.304;2023-04-01T08:25:42;0.77;;;0.73;;
966;SDS011;56108;48.730;9.304;2023-04-01T08:27:57;2.35;;;0.80;;
966;SDS011;56108;48.730;9.304;2023-04-01T08:30:15;1.05;;;0.40;;
966;SDS011;56108;48.730;9.304;2023-04-01T08:32:28;0.73;;;0.60;;
966;SDS011;56108;48.730;9.304;2023-04-01T08:34:45;0.50;;;0.50;;
966;SDS011;56108;48.730;9.304;2023-04-01T08:37:11;0.70;;;0.60;;
966;SDS011;56108;48.730;9.304;2023-04-01T08:39:29;1.50;;;0.77;;
966;SDS011;56108;48.730;9.304;2023-04-01T08:41:48;1.10;;;0.57;;
966;SDS011;56108;48.730;9.304;2023-04-01T08:44:45;0.70;;;0.70;;
966;SDS011;56108;48.730;9.304;2023-04-01T08:47:45;0.95;;;0.50;;
966;SDS011;56108;48.730;9.304;2023-04-01T08:50:12;0.93;;;0.90;;
966;SDS011;56108;48.730;9.304;2023-04-01T08:53:00;0.60;;;0.50;;
966;SDS011;56108;48.730;9.304;2023-04-01T08:55:20;0.40;;;0.40;;
966;SDS011;56108;48.730;9.304;2023-04-01T08:57:44;0.77;;;0.50;;
966;SDS011;56108;48.730;9.304;2023-04-01T09:00:21;0.82;;;0.65;;
966;SDS011;56108;48.730;9.304;2023-04-01T09:02:58;0.98;;;0.60;;
966;SDS011;56108;48.730;9.304;2023-04-01T09:05:29;1.10;;;0.57;;
966;SDS011;56108;48.730;9.304;2023-04-01T09:07:57;2.22;;;1.30;;
966;SDS011;56108;48.730;9.304;2023-04-01T09:10:20;1.63;;;0.90;;
966;SDS011;56108;48.730;9.304;2023-04-01T09:13:04;3.13;;;2.53;;
966;SDS011;56108;48.730;9.304;2023-04-01T09:18:31;0.85;;;0.70;;
966;SDS011;56108;48.730;9.304;2023-04-01T09:23:35;1.38;;;1.27;;
966;SDS011;56108;48.730;9.304;2023-04-01T09:26:03;2.25;;;1.52;;
966;SDS011;56108;48.730;9.304;2023-04-01T09:28:27;1.13;;;1.00;;
966;SDS011;56108;48.730;9.304;2023-04-01T09:30:57;1.45;;;1.35;;
966;SDS011;56108;48.730;9.304;2023-04-01T09:33:46;2.05;;;1.90;;
966;SDS011;56108;48.730;9.304;2023-04-01T09:39:20;1.30;;;1.20;;
966;SDS011;56108;48.730;9.304;2023-04-01T09:41:46;1.77;;;0.90;;
966;SDS011;56108;48.730;9.304;2023-04-01T09:44:21;0.70;;;0.70;;
966;SDS011;56108;48.730;9.304;2023-04-01T09:46:54;2.80;;;0.70;;
966;SDS011;56108;48.730;9.304;2023-04-01T09:52:05;0.70;;;0.60;;
966;SDS011;56108;48.730;9.304;2023-04-01T09:54:27;0.70;;;0.40;;
966;SDS011;56108;48.730;9.304;2023-04-01T09:59:49;3.17;;;0.60;;
966;SDS011;56108;48.730;9.304;2023-04-01T10:02:25;0.60;;;0.40;;
966;SDS011;56108;48.730;9.304;2023-04-01T10:10:42;0.70;;;0.70;;
966;SDS011;56108;48.730;9.304;2023-04-01T10:15:57;0.50;;;0.40;;
966;SDS011;56108;48.730;9.304;2023-04-01T10:21:28;0.82;;;0.50;;
966;SDS011;56108;48.730;9.304;2023-04-01T10:24:09;0.70;;;0.50;;
966;SDS011;56108;48.730;9.304;2023-04-01T10:40:29;0.60;;;0.45;;
966;SDS011;56108;48.730;9.304;2023-04-01T10:43:24;0.45;;;0.40;;
966;SDS011;56108;48.730;9.304;2023-04-01T10:46:11;0.40;;;0.30;;
966;SDS011;56108;48.730;9.304;2023-04-01T10:48:39;0.75;;;0.75;;
966;SDS011;56108;48.730;9.304;2023-04-01T10:51:15;2.45;;;0.60;;
966;SDS011;56108;48.730;9.304;2023-04-01T10:53:43;0.60;;;0.32;;
966;SDS011;56108;48.730;9.304;2023-04-01T10:59:28;0.60;;;0.50;;
966;SDS011;56108;48.730;9.304;2023-04-01T11:05:36;0.63;;;0.40;;
966;SDS011;56108;48.730;9.304;2023-04-01T11:21:37;0.50;;;0.40;;
966;SDS011;56108;48.730;9.304;2023-04-01T11:27:36;2.05;;;0.40;;
966;SDS011;56108;48.730;9.304;2023-04-01T11:30:01;1.48;;;0.40;;
966;SDS011;56108;48.730;9.304;2023-04-01T11:32:31;0.50;;;0.30;;
966;SDS011;56108;48.730;9.304;2023-04-01T11:34:54;0.30;;;0.30;;
966;SDS011;56108;48.730;9.304;2023-04-01T11:37:15;0.30;;;0.30;;
966;SDS011;56108;48.730;9.304;2023-04-01T11:39:59;0.38;;;0.25;;
966;SDS011;56108;48.730;9.304;2023-04-01T11:42:40;0.45;;;0.43;;
966;SDS011;56108;48.730;9.304;2023-04-01T11:45:35;0.30;;;0.30;;
966;SDS011;56108;48.730;9.304;2023-04-01T11:47:56;0.30;;;0.20;;
966;SDS011;56108;48.730;9.304;2023-04-01T11:50:20;0.40;;;0.30;;
966;SDS011;56108;48.730;9.304;2023-04-01T11:52:39;0.30;;;0.30;;
966;SDS011;56108;48.730;9.304;2023-04-01T11:55:14;1.13;;;0.30;;
966;SDS011;56108;48.730;9.304;2023-04-01T11:57:43;0.40;;;0.40;;
966;SDS011;56108;48.730;9.304;2023-04-01T12:00:05;0.70;;;0.40;;
966;SDS011;56108;48.730;9.304;2023-04-01T12:02:40;0.93;;;0.50;;
966;SDS011;56108;48.730;9.304;2023-04-01T12:07:50;0.85;;;0.55;;
966;SDS011;56108;48.730;9.304;2023-04-01T12:10:12;0.40;;;0.20;;
966;SDS011;56108;48.730;9.304;2023-04-01T12:12:29;0.45;;;0.43;;
966;SDS011;56108;48.730;9.304;2023-04-01T12:15:10;0.40;;;0.20;;
966;SDS011;56108;48.730;9.304;2023-04-01T12:17:30;0.50;;;0.30;;
966;SDS011;56108;48.730;9.304;2023-04-01T12:19:47;0.40;;;0.40;;
966;SDS011;56108;48.730;9.304;2023-04-01T12:24:47;0.40;;;0.32;;
966;SDS011;56108;48.730;9.304;2023-04-01T12:27:17;0.82;;;0.40;;
966;SDS011;56108;48.730;9.304;2023-04-01T12:29:37;0.95;;;0.30;;
966;SDS011;56108;48.730;9.304;2023-04-01T12:31:57;0.90;;;0.75;;
966;SDS011;56108;48.730;9.304;2023-04-01T12:37:08;0.43;;;0.43;;
966;SDS011;56108;48.730;9.304;2023-04-01T12:42:24;0.40;;;0.30;;
966;SDS011;56108;48.730;9.304;2023-04-01T12:44:55;0.40;;;0.40;;
966;SDS011;56108;48.730;9.304;2023-04-01T12:47:13;0.82;;;0.52;;
966;SDS011;56108;48.730;9.304;2023-04-01T12:49:38;0.30;;;0.28;;
966;SDS011;56108;48.730;9.304;2023-04-01T12:52:07;3.58;;;0.55;;
966;SDS011;56108;48.730;9.304;2023-04-01T12:57:08;0.30;;;0.20;;
966;SDS011;56108;48.730;9.304;2023-04-01T12:59:41;1.08;;;0.47;;
966;SDS011;56108;48.730;9.304;2023-04-01T13:02:01;0.30;;;0.30;;
966;SDS011;56108;48.730;9.304;2023-04-01T13:04:33;0.75;;;0.35;;
966;SDS011;56108;48.730;9.304;2023-04-01T13:07:02;0.40;;;0.22;;
966;SDS011;56108;48.730;9.304;2023-04-01T13:09:29;0.30;;;0.20;;
966;SDS011;56108;48.730;9.304;2023-04-01T13:11:50;0.30;;;0.20;;
966;SDS011;56108;48.730;9.304;2023-04-01T13:16:40;0.40;;;0.40;;
966;SDS011;56108;48.730;9.304;2023-04-01T13:18:57;0.30;;;0.30;;
966;SDS011;56108;48.730;9.304;2023-04-01T13:21:11;0.30;;;0.30;;
966;SDS011;56108;48.730;9.304;2023-04-01T13:23:30;0.32;;;0.32;;
966;SDS011;56108;48.730;9.304;2023-04-01T13:25:45;1.10;;;0.30;;
966;SDS011;56108;48.730;9.304;2023-04-01T13:28:18;0.50;;;0.30;;
966;SDS011;56108;48.730;9.304;2023-04-01T13:30:33;0.93;;;0.40;;
966;SDS011;56108;48.730;9.304;2023-04-01T13:32:50;0.43;;;0.43;;
966;SDS011;56108;48.730;9.304;2023-04-01T13:35:10;0.30;;;0.20;;
966;SDS011;56108;48.730;9.304;2023-04-01T13:37:36;0.30;;;0.20;;
966;SDS011;56108;48.730;9.304;2023-04-01T13:40:02;1.60;;;0.30;;
966;SDS011;56108;48.730;9.304;2023-04-01T13:42:26;0.30;;;0.30;;
966;SDS011;56108;48.730;9.304;2023-04-01T13:44:40;0.40;;;0.30;;
966;SDS011;56108;48.730;9.304;2023-04-01T13:47:07;0.40;;;0.20;;
966;SDS011;56108;48.730;9.304;2023-04-01T13:50:04;0.30;;;0.20;;
966;SDS011;56108;48.730;9.304;2023-04-01T13:52:29;0.30;;;0.20;;
966;SDS011;56108;48.730;9.304;2023-04-01T13:54:51;0.40;;;0.28;;
966;SDS011;56108;48.730;9.304;2023-04-01T13:57:17;0.40;;;0.40;;
966;SDS011;56108;48.730;9.304;2023-04-01T13:59:47;0.40;;;0.30;;
966;SDS011;56108;48.730;9.304;2023-04-01T14:07:55;0.30;;;0.28;;
966;SDS011;56108;48.730;9.304;2023-04-01T14:10:15;0.30;;;0.20;;
966;SDS011;56108;48.730;9.304;2023-04-01T14:12:29;0.70;;;0.30;;
966;SDS011;56108;48.730;9.304;2023-04-01T14:14:46;0.30;;;0.20;;
966;SDS011;56108;48.730;9.304;2023-04-01T14:17:10;0.30;;;0.30;;
966;SDS011;56108;48.730;9.304;2023-04-01T14:22:38;0.40;;;0.40;;
966;SDS011;56108;48.730;9.304;2023-04-01T14:25:17;0.40;;;0.40;;
966;SDS011;56108;48.730;9.304;2023-04-01T14:27:49;0.40;;;0.40;;
966;SDS011;56108;48.730;9.304;2023-04-01T14:30:15;0.30;;;0.25;;
966;SDS011;56108;48.730;9.304;2023-04-01T14:32:49;0.40;;;0.30;;
966;SDS011;56108;48.730;9.304;2023-04-01T14:35:17;0.40;;;0.40;;
966;SDS011;56108;48.730;9.304;2023-04-01T14:37:54;0.40;;;0.30;;
966;SDS011;56108;48.730;9.304;2023-04-01T14:40:19;0.40;;;0.40;;
966;SDS011;56108;48.730;9.304;2023-04-01T14:47:53;0.60;;;0.40;;
966;SDS011;56108;48.730;9.304;2023-04-01T14:50:07;0.30;;;0.30;;
966;SDS011;56108;48.730;9.304;2023-04-01T14:52:23;0.35;;;0.35;;
966;SDS011;56108;48.730;9.304;2023-04-01T14:54:32;0.52;;;0.47;;
966;SDS011;56108;48.730;9.304;2023-04-01T14:56:47;0.52;;;0.30;;
966;SDS011;56108;48.730;9.304;2023-04-01T14:58:58;0.50;;;0.47;;
966;SDS011;56108;48.730;9.304;2023-04-01T15:01:09;0.40;;;0.40;;
966;SDS011;56108;48.730;9.304;2023-04-01T15:03:27;0.40;;;0.30;;
966;SDS011;56108;48.730;9.304;2023-04-01T15:05:42;0.30;;;0.20;;
966;SDS011;56108;48.730;9.304;2023-04-01T15:08:07;0.47;;;0.47;;
966;SDS011;56108;48.730;9.304;2023-04-01T15:10:27;0.82;;;0.25;;
966;SDS011;56108;48.730;9.304;2023-04-01T15:12:56;0.50;;;0.40;;
966;SDS011;56108;48.730;9.304;2023-04-01T15:15:21;0.30;;;0.28;;
966;SDS011;56108;48.730;9.304;2023-04-01T15:17:44;0.40;;;0.40;;
966;SDS011;56108;48.730;9.304;2023-04-01T15:20:10;0.30;;;0.20;;
966;SDS011;56108;48.730;9.304;2023-04-01T15:22:38;0.30;;;0.20;;
966;SDS011;56108;48.730;9.304;2023-04-01T15:25:05;0.40;;;0.40;;
966;SDS011;56108;48.730;9.304;2023-04-01T15:27:30;0.70;;;0.32;;
966;SDS011;56108;48.730;9.304;2023-04-01T15:29:55;0.30;;;0.20;;
966;SDS011;56108;48.730;9.304;2023-04-01T15:32:16;2.05;;;0.50;;
966;SDS011;56108;48.730;9.304;2023-04-01T15:34:33;0.30;;;0.20;;
966;SDS011;56108;48.730;9.304;2023-04-01T15:36:50;0.30;;;0.30;;
966;SDS011;56108;48.730;9.304;2023-04-01T15:39:09;0.40;;;0.30;;
966;SDS011;56108;48.730;9.304;2023-04-01T15:41:22;0.40;;;0.20;;
966;SDS011;56108;48.730;9.304;2023-04-01T15:43:44;0.40;;;0.30;;
966;SDS011;56108;48.730;9.304;2023-04-01T15:46:08;1.25;;;1.15;;
966;SDS011;56108;48.730;9.304;2023-04-01T15:48:35;0.50;;;0.50;;
966;SDS011;56108;48.730;9.304;2023-04-01T15:50:54;0.98;;;0.43;;
966;SDS011;56108;48.730;9.304;2023-04-01T15:53:16;0.60;;;0.60;;
966;SDS011;56108;48.730;9.304;2023-04-01T15:55:31;0.82;;;0.60;;
966;SDS011;56108;48.730;9.304;2023-04-01T15:57:51;0.60;;;0.60;;
966;SDS011;56108;48.730;9.304;2023-04-01T16:00:25;0.93;;;0.60;;
966;SDS011;56108;48.730;9.304;2023-04-01T16:02:43;0.40;;;0.40;;
966;SDS011;56108;48.730;9.304;2023-04-01T16:04:58;0.50;;;0.47;;